Time;durP1;ratioP1;P1;durP2;ratioP2;P2;SDS_P1;SDS_P2;PMS_P1;PMS_P2;Temp;Humidity;BMP_temperature;BMP_pressure;BME280_temperature;BME280_humidity;BME280_pressure;Samples;Min_cycle;Max_cycle;Signal;HPM_P1;HPM_P2
2024/03/05 00:00:53;;;;;;;50.00;22.67;;;7.40;99.90;;;;;;468125;251;27977;-74
2024/03/05 00:02:54;;;;;;;45.00;20.50;;;7.40;99.90;;;;;;476904;249;28034;-73
2024/03/05 00:04:55;;;;;;;51.17;23.70;;;7.40;99.90;;;;;;468137;251;27783;-74
2024/03/05 00:06:57;;;;;;;49.00;22.83;;;7.40;99.90;;;;;;476994;249;27808;-74
2024/03/05 00:08:58;;;;;;;42.13;20.80;;;7.40;99.90;;;;;;468068;251;27832;-74
2024/03/05 00:10:59;;;;;;;46.67;22.00;;;7.40;99.90;;;;;;476935;249;28080;-73
2024/03/05 00:13:00;;;;;;;47.40;20.87;;;7.30;99.90;;;;;;468113;251;28365;-73
2024/03/05 00:15:02;;;;;;;53.23;23.33;;;7.30;99.90;;;;;;476989;249;28556;-73
2024/03/05 00:17:03;;;;;;;52.80;24.40;;;7.30;99.90;;;;;;468115;251;28488;-73
2024/03/05 00:19:04;;;;;;;42.93;21.20;;;7.30;99.90;;;;;;476971;249;28150;-73
2024/03/05 00:21:05;;;;;;;43.27;22.00;;;7.30;99.90;;;;;;468140;251;27860;-73
2024/03/05 00:23:07;;;;;;;41.20;21.07;;;7.40;99.90;;;;;;477018;249;27836;-73
2024/03/05 00:25:08;;;;;;;49.37;22.37;;;7.40;99.90;;;;;;468105;251;27859;-74
2024/03/05 00:27:09;;;;;;;47.90;21.40;;;7.40;99.90;;;;;;476955;249;27416;-73
2024/03/05 00:29:11;;;;;;;48.37;21.87;;;7.40;99.90;;;;;;468027;254;27950;-73
2024/03/05 00:31:12;;;;;;;45.23;22.50;;;7.40;99.90;;;;;;476948;249;28501;-75
2024/03/05 00:33:13;;;;;;;48.17;22.90;;;7.30;99.90;;;;;;468125;251;28510;-73
2024/03/05 00:35:15;;;;;;;59.00;25.60;;;7.30;99.90;;;;;;477027;249;28412;-73
2024/03/05 00:37:16;;;;;;;57.93;27.17;;;7.30;99.90;;;;;;468083;251;27884;-73
2024/03/05 00:39:17;;;;;;;63.00;29.07;;;7.40;99.90;;;;;;477000;249;27898;-74
2024/03/05 00:41:18;;;;;;;48.77;23.97;;;7.30;99.90;;;;;;468141;251;27888;-74
2024/03/05 00:43:19;;;;;;;58.13;27.37;;;7.40;99.90;;;;;;477006;249;27989;-74
2024/03/05 00:45:21;;;;;;;77.87;34.53;;;7.30;99.90;;;;;;468133;251;27850;-74
2024/03/05 00:47:22;;;;;;;71.27;31.00;;;7.30;99.90;;;;;;476949;249;27827;-74
2024/03/05 00:49:23;;;;;;;68.47;29.60;;;7.30;99.90;;;;;;468136;251;28245;-73
2024/03/05 00:51:24;;;;;;;66.53;29.10;;;7.30;99.90;;;;;;477000;249;28633;-73
2024/03/05 00:53:25;;;;;;;68.03;29.20;;;7.30;99.90;;;;;;468108;251;27985;-73
2024/03/05 00:55:28;;;;;;;64.70;30.03;;;7.30;99.90;;;;;;476991;249;27917;-73
2024/03/05 00:57:28;;;;;;;63.80;28.57;;;7.30;99.90;;;;;;468067;254;28374;-75
2024/03/05 00:59:32;;;;;;;66.33;27.93;;;7.30;99.90;;;;;;477033;249;27775;-73
2024/03/05 01:01:33;;;;;;;64.17;29.07;;;7.30;99.90;;;;;;468027;251;28014;-73
2024/03/05 01:03:34;;;;;;;57.50;26.83;;;7.30;99.90;;;;;;477016;249;28112;-74
2024/03/05 01:05:36;;;;;;;62.80;26.90;;;7.30;99.90;;;;;;468138;251;28359;-73
2024/03/05 01:07:37;;;;;;;52.13;26.10;;;7.30;99.90;;;;;;476965;249;28003;-73
2024/03/05 01:09:38;;;;;;;53.93;26.13;;;7.30;99.90;;;;;;468108;251;27787;-73
2024/03/05 01:11:39;;;;;;;58.73;26.70;;;7.30;99.90;;;;;;477037;249;27418;-73
2024/03/05 01:13:41;;;;;;;60.17;28.07;;;7.30;99.90;;;;;;468152;251;27484;-74
2024/03/05 01:15:42;;;;;;;61.60;27.03;;;7.30;99.90;;;;;;476986;249;27810;-73
2024/03/05 01:17:43;;;;;;;51.97;25.93;;;7.40;99.90;;;;;;468064;251;28011;-73
2024/03/05 01:19:46;;;;;;;54.83;25.73;;;7.40;99.90;;;;;;477024;249;27991;-74
2024/03/05 01:21:45;;;;;;;54.73;26.40;;;7.40;99.90;;;;;;468044;254;28263;-73
2024/03/05 01:23:48;;;;;;;54.40;26.73;;;7.30;99.90;;;;;;476996;249;28411;-72
2024/03/05 01:25:48;;;;;;;65.60;28.90;;;7.30;99.90;;;;;;468058;254;27982;-73
2024/03/05 01:27:49;;;;;;;85.87;32.17;;;7.30;99.90;;;;;;476953;249;28119;-73
2024/03/05 01:29:52;;;;;;;60.20;27.73;;;7.30;99.90;;;;;;468140;251;27952;-74
2024/03/05 01:31:56;;;;;;;56.23;28.47;;;7.30;99.90;;;;;;476905;249;27671;-73
2024/03/05 01:33:53;;;;;;;67.67;30.00;;;7.30;99.90;;;;;;467837;254;27922;-74
2024/03/05 01:35:56;;;;;;;73.20;32.77;;;7.30;99.90;;;;;;476990;249;27585;-74
2024/03/05 01:37:55;;;;;;;81.13;34.40;;;7.30;99.90;;;;;;468049;251;27894;-74
2024/03/05 01:39:57;;;;;;;71.00;29.40;;;7.30;99.90;;;;;;477010;249;28474;-75
2024/03/05 01:41:58;;;;;;;78.90;35.17;;;7.30;99.90;;;;;;468123;251;28089;-74
2024/03/05 01:43:59;;;;;;;82.17;34.17;;;7.30;99.90;;;;;;476993;249;28019;-73
2024/03/05 01:46:00;;;;;;;70.77;31.80;;;7.30;99.90;;;;;;468174;251;27710;-72
2024/03/05 01:48:04;;;;;;;70.43;29.90;;;7.30;99.90;;;;;;476993;249;27958;-74
2024/03/05 01:50:03;;;;;;;68.73;28.53;;;7.30;99.90;;;;;;468033;254;27804;-74
2024/03/05 01:52:05;;;;;;;65.43;29.93;;;7.30;99.90;;;;;;477023;249;27904;-74
2024/03/05 01:54:05;;;;;;;65.83;29.17;;;7.30;99.90;;;;;;468132;251;27858;-74
2024/03/05 01:56:07;;;;;;;80.50;35.50;;;7.30;99.90;;;;;;477026;249;27971;-75
2024/03/05 01:58:08;;;;;;;77.73;32.40;;;7.30;99.90;;;;;;468089;251;28391;-73
2024/03/05 02:00:15;;;;;;;65.13;28.87;;;7.20;99.90;;;;;;477045;249;28421;-74
2024/03/05 02:02:13;;;;;;;62.87;28.93;;;7.30;99.90;;;;;;467998;254;27959;-74
2024/03/05 02:04:15;;;;;;;64.50;30.13;;;7.30;99.90;;;;;;477011;249;27852;-74
2024/03/05 02:06:16;;;;;;;65.87;30.60;;;7.20;99.90;;;;;;468121;251;27951;-74
2024/03/05 02:08:17;;;;;;;78.80;31.13;;;7.20;99.90;;;;;;476988;249;27936;-74
2024/03/05 02:10:18;;;;;;;66.47;30.57;;;7.20;99.90;;;;;;468163;251;27910;-74
2024/03/05 02:12:19;;;;;;;64.57;30.67;;;7.30;99.90;;;;;;477016;249;28400;-74
2024/03/05 02:14:22;;;;;;;77.10;31.67;;;7.20;99.90;;;;;;468135;251;28975;-73
2024/03/05 02:16:22;;;;;;;78.27;34.17;;;7.20;99.90;;;;;;477021;249;28554;-73
2024/03/05 02:18:23;;;;;;;79.87;33.50;;;7.20;99.90;;;;;;468146;251;27940;-74
2024/03/05 02:20:25;;;;;;;70.83;32.20;;;7.20;99.90;;;;;;477053;249;27765;-74
2024/03/05 02:22:26;;;;;;;60.47;27.37;;;7.20;99.90;;;;;;468094;251;27921;-74
2024/03/05 02:24:28;;;;;;;72.27;30.43;;;7.30;99.90;;;;;;477031;249;28259;-74
2024/03/05 02:26:29;;;;;;;74.97;32.47;;;7.20;99.90;;;;;;468142;251;27791;-72
2024/03/05 02:28:29;;;;;;;72.90;33.20;;;7.20;99.90;;;;;;476887;249;27797;-74
2024/03/05 02:30:31;;;;;;;68.73;31.27;;;7.20;99.90;;;;;;468102;251;28348;-73
2024/03/05 02:32:32;;;;;;;66.77;30.63;;;7.20;99.90;;;;;;476988;249;28365;-71
2024/03/05 02:34:33;;;;;;;65.27;29.83;;;7.20;99.90;;;;;;468148;251;27585;-74
2024/03/05 02:36:34;;;;;;;68.43;29.67;;;7.20;99.90;;;;;;477003;249;28015;-73
2024/03/05 02:38:36;;;;;;;65.27;29.10;;;7.20;99.90;;;;;;468034;251;28043;-73
2024/03/05 02:40:37;;;;;;;69.27;31.37;;;7.20;99.90;;;;;;476961;249;27700;-73
2024/03/05 02:42:38;;;;;;;70.03;31.00;;;7.20;99.90;;;;;;468120;251;27912;-73
2024/03/05 02:44:39;;;;;;;64.10;29.80;;;7.20;99.90;;;;;;476998;249;28492;-73
2024/03/05 02:46:41;;;;;;;70.73;30.77;;;7.20;99.90;;;;;;468095;251;28369;-73
2024/03/05 02:48:43;;;;;;;64.27;29.40;;;7.20;99.90;;;;;;476930;249;28493;-72
2024/03/05 02:50:43;;;;;;;82.63;33.93;;;7.20;99.90;;;;;;468093;251;28073;-73
2024/03/05 02:52:45;;;;;;;64.77;29.27;;;7.20;99.90;;;;;;476998;249;27892;-73
2024/03/05 02:54:46;;;;;;;62.10;29.20;;;7.20;99.90;;;;;;468113;251;27833;-73
2024/03/05 02:56:47;;;;;;;60.53;28.03;;;7.20;99.90;;;;;;476966;249;27975;-71
2024/03/05 02:58:48;;;;;;;57.03;29.63;;;7.20;99.90;;;;;;468070;251;27879;-71
2024/03/05 03:00:50;;;;;;;70.27;31.03;;;7.20;99.90;;;;;;477043;249;28047;-75
2024/03/05 03:02:51;;;;;;;67.10;28.43;;;7.20;99.90;;;;;;468144;251;28429;-73
2024/03/05 03:04:52;;;;;;;66.93;29.67;;;7.20;99.90;;;;;;476997;249;28138;-73
2024/03/05 03:06:53;;;;;;;57.80;29.33;;;7.20;99.90;;;;;;468113;251;28219;-71
2024/03/05 03:08:56;;;;;;;68.63;31.40;;;7.20;99.90;;;;;;476988;249;27897;-71
2024/03/05 03:10:56;;;;;;;59.57;27.83;;;7.20;99.90;;;;;;468150;251;27910;-72
2024/03/05 03:12:57;;;;;;;65.77;29.97;;;7.20;99.90;;;;;;477009;249;27573;-74
2024/03/05 03:14:58;;;;;;;65.07;28.30;;;7.20;99.90;;;;;;468141;251;28056;-71
2024/03/05 03:17:00;;;;;;;71.23;33.53;;;7.20;99.90;;;;;;477023;249;27888;-73
2024/03/05 03:19:01;;;;;;;71.07;32.37;;;7.20;99.90;;;;;;468146;251;27898;-73
2024/03/05 03:21:05;;;;;;;64.47;30.90;;;7.20;99.90;;;;;;477025;249;28427;-74
2024/03/05 03:23:06;;;;;;;59.53;26.73;;;7.20;99.90;;;;;;468089;251;28262;-73
2024/03/05 03:25:09;;;;;;;71.50;32.47;;;7.10;99.90;;;;;;477040;249;28216;-75
2024/03/05 03:27:09;;;;;;;61.07;29.10;;;7.10;99.90;;;;;;468063;254;28204;-74
2024/03/05 03:29:13;;;;;;;79.23;35.87;;;7.20;99.90;;;;;;477015;249;27914;-72
2024/03/05 03:31:14;;;;;;;62.63;30.40;;;7.20;99.90;;;;;;468127;251;28661;-71
2024/03/05 03:33:16;;;;;;;65.47;30.60;;;7.10;99.90;;;;;;476989;249;29123;-73
2024/03/05 03:35:17;;;;;;;67.23;29.70;;;7.20;99.90;;;;;;468136;251;28552;-73
2024/03/05 03:37:18;;;;;;;70.73;30.70;;;7.20;99.90;;;;;;476985;249;27987;-75
2024/03/05 03:39:25;;;;;;;98.60;39.00;;;7.10;99.90;;;;;;468136;251;28606;-74
2024/03/05 03:41:27;;;;;;;98.53;38.50;;;7.10;99.90;;;;;;477013;249;27968;-73
2024/03/05 03:43:28;;;;;;;80.70;36.70;;;7.10;99.90;;;;;;468149;251;28283;-75
2024/03/05 03:45:32;;;;;;;78.53;36.93;;;7.00;99.90;;;;;;477039;249;27878;-74
2024/03/05 03:47:31;;;;;;;73.80;32.83;;;7.00;99.90;;;;;;467926;254;27792;-72
2024/03/05 03:49:32;;;;;;;69.67;31.73;;;7.00;99.90;;;;;;477003;249;28338;-71
2024/03/05 03:51:33;;;;;;;96.60;36.80;;;7.10;99.90;;;;;;468112;251;28409;-71
2024/03/05 03:53:34;;;;;;;79.67;34.83;;;7.00;99.90;;;;;;477041;249;28307;-73
2024/03/05 03:55:37;;;;;;;80.37;33.93;;;7.00;99.90;;;;;;468135;251;27916;-71
2024/03/05 03:57:37;;;;;;;68.93;32.63;;;7.00;99.90;;;;;;476899;249;28093;-72
2024/03/05 03:59:39;;;;;;;71.17;32.30;;;7.00;99.90;;;;;;468113;251;27578;-73
2024/03/05 04:01:39;;;;;;;85.33;36.40;;;7.00;99.90;;;;;;477039;249;28829;-74
2024/03/05 04:03:41;;;;;;;69.60;32.13;;;7.00;99.90;;;;;;468146;251;27925;-74
2024/03/05 04:05:44;;;;;;;61.50;28.63;;;6.90;99.90;;;;;;476992;249;27736;-74
2024/03/05 04:07:43;;;;;;;77.47;34.17;;;6.90;99.90;;;;;;468023;254;28237;-71
2024/03/05 04:09:44;;;;;;;69.60;30.10;;;7.00;99.90;;;;;;476985;249;28468;-73
2024/03/05 04:11:46;;;;;;;66.80;30.53;;;6.90;99.90;;;;;;468155;251;28461;-71
2024/03/05 04:13:47;;;;;;;81.50;35.67;;;7.00;99.90;;;;;;477019;249;27795;-71
2024/03/05 04:15:48;;;;;;;60.60;27.87;;;6.90;99.90;;;;;;468134;251;27714;-73
2024/03/05 04:17:49;;;;;;;58.97;29.60;;;6.90;99.90;;;;;;476958;249;27811;-71
2024/03/05 04:19:51;;;;;;;55.20;26.87;;;7.00;99.90;;;;;;468141;251;27944;-75
2024/03/05 04:21:52;;;;;;;69.63;30.10;;;6.90;99.90;;;;;;477000;249;27758;-74
2024/03/05 04:23:53;;;;;;;66.03;28.00;;;6.90;99.90;;;;;;468106;251;28034;-71
2024/03/05 04:26:01;;;;;;;66.20;30.37;;;6.90;99.90;;;;;;477006;249;28312;-71
2024/03/05 04:27:56;;;;;;;58.90;27.53;;;6.90;99.90;;;;;;467566;254;28178;-71
2024/03/05 04:29:57;;;;;;;59.57;27.97;;;6.90;99.90;;;;;;477029;249;28415;-74
2024/03/05 04:32:08;;;;;;;62.47;28.17;;;6.90;99.90;;;;;;468144;251;27705;-73
2024/03/05 04:34:08;;;;;;;67.90;30.57;;;6.90;99.90;;;;;;476948;249;28247;-72
2024/03/05 04:36:09;;;;;;;61.43;29.70;;;6.90;99.90;;;;;;468121;251;28301;-70
2024/03/05 04:38:11;;;;;;;59.80;29.07;;;6.90;99.90;;;;;;476993;249;29097;-71
2024/03/05 04:40:12;;;;;;;64.30;30.50;;;6.90;99.90;;;;;;468163;251;27983;-72
2024/03/05 04:42:14;;;;;;;63.47;29.30;;;6.90;99.90;;;;;;477015;249;28002;-74
2024/03/05 04:44:15;;;;;;;57.23;27.80;;;6.90;99.90;;;;;;468050;254;28043;-72
2024/03/05 04:46:16;;;;;;;63.60;28.85;;;6.90;99.90;;;;;;476982;249;27955;-74
2024/03/05 04:48:17;;;;;;;54.60;27.10;;;6.90;99.90;;;;;;467968;254;27508;-72
2024/03/05 04:50:18;;;;;;;61.40;28.13;;;6.90;99.90;;;;;;477032;249;28401;-71
2024/03/05 04:52:19;;;;;;;70.90;29.33;;;6.90;99.90;;;;;;468130;251;27933;-71
2024/03/05 04:54:21;;;;;;;61.73;26.83;;;6.90;99.90;;;;;;476987;249;28357;-71
2024/03/05 04:56:22;;;;;;;71.67;30.03;;;6.90;99.90;;;;;;468110;251;27793;-73
2024/03/05 04:58:24;;;;;;;55.27;26.17;;;6.90;99.90;;;;;;476698;249;27819;-71
2024/03/05 05:00:25;;;;;;;58.17;25.67;;;6.90;99.90;;;;;;468131;251;27870;-73
2024/03/05 05:02:26;;;;;;;55.30;24.47;;;6.90;99.90;;;;;;477006;249;27477;-75
2024/03/05 05:04:27;;;;;;;50.93;26.90;;;6.90;99.90;;;;;;468099;251;27661;-73
2024/03/05 05:06:28;;;;;;;54.63;25.47;;;6.90;99.90;;;;;;476569;249;27674;-73
2024/03/05 05:08:29;;;;;;;60.87;26.70;;;6.80;99.90;;;;;;476934;249;28399;-73
2024/03/05 05:10:34;;;;;;;60.80;25.23;;;6.80;99.90;;;;;;468077;251;28445;-73
2024/03/05 05:12:35;;;;;;;69.47;31.10;;;6.80;99.90;;;;;;476972;249;27885;-73
2024/03/05 05:14:36;;;;;;;59.90;26.93;;;6.80;99.90;;;;;;468030;251;28155;-73
2024/03/05 05:16:37;;;;;;;55.13;24.13;;;6.80;99.90;;;;;;476988;249;28292;-74
2024/03/05 05:18:38;;;;;;;50.17;24.47;;;6.80;99.90;;;;;;468058;251;27962;-73
2024/03/05 05:20:40;;;;;;;52.37;25.20;;;6.80;99.90;;;;;;476977;249;27743;-74
2024/03/05 05:22:42;;;;;;;51.63;24.80;;;6.80;99.90;;;;;;468039;251;28373;-73
2024/03/05 05:24:42;;;;;;;49.63;23.03;;;6.80;99.90;;;;;;476923;249;28568;-73
2024/03/05 05:26:43;;;;;;;57.70;27.60;;;6.90;99.90;;;;;;468140;251;27944;-74
2024/03/05 05:28:45;;;;;;;63.90;27.10;;;6.90;99.90;;;;;;476933;249;27896;-73
2024/03/05 05:30:46;;;;;;;60.77;29.43;;;6.80;99.90;;;;;;468111;253;28018;-73
2024/03/05 05:32:50;;;;;;;53.00;24.97;;;6.80;99.90;;;;;;476974;249;28048;-73
2024/03/05 05:34:51;;;;;;;55.33;26.77;;;6.80;99.90;;;;;;468107;251;28060;-73
2024/03/05 05:36:53;;;;;;;51.00;24.63;;;6.80;99.90;;;;;;477035;249;28005;-72
2024/03/05 05:38:54;;;;;;;48.83;24.20;;;6.80;99.90;;;;;;468101;251;27955;-73
2024/03/05 05:40:55;;;;;;;59.90;26.90;;;6.80;99.90;;;;;;477012;249;27904;-73
2024/03/05 05:42:58;;;;;;;52.03;24.20;;;6.80;99.90;;;;;;468113;251;27927;-73
2024/03/05 05:44:58;;;;;;;53.33;23.10;;;6.80;99.90;;;;;;476978;249;27913;-74
2024/03/05 05:47:03;;;;;;;63.47;29.77;;;6.80;99.90;;;;;;468143;251;28524;-73
2024/03/05 05:49:05;;;;;;;52.13;25.50;;;6.70;99.90;;;;;;476732;249;28424;-74
2024/03/05 05:51:10;;;;;;;54.00;27.33;;;6.70;99.90;;;;;;467826;254;27886;-73
2024/03/05 05:53:03;;;;;;;69.27;31.17;;;6.70;99.90;;;;;;476500;249;27906;-73
2024/03/05 05:55:05;;;;;;;48.77;23.97;;;6.70;99.90;;;;;;468137;251;28008;-75
2024/03/05 05:57:06;;;;;;;49.40;25.47;;;6.70;99.90;;;;;;476941;249;27889;-73
2024/03/05 05:59:08;;;;;;;56.97;26.47;;;6.70;99.90;;;;;;468043;251;27903;-73
2024/03/05 06:01:09;;;;;;;53.70;26.13;;;6.70;99.90;;;;;;476888;249;27888;-73
2024/03/05 06:03:11;;;;;;;50.17;24.10;;;6.70;99.90;;;;;;468088;251;28176;-73
2024/03/05 06:05:10;;;;;;;44.83;23.07;;;6.70;99.90;;;;;;476958;249;28293;-74
2024/03/05 06:07:11;;;;;;;47.43;22.90;;;6.70;99.90;;;;;;468084;251;28369;-73
2024/03/05 06:09:14;;;;;;;44.50;22.47;;;6.70;99.90;;;;;;476986;249;28159;-73
2024/03/05 06:11:14;;;;;;;42.50;23.30;;;6.70;99.90;;;;;;468111;251;28148;-73
2024/03/05 06:13:15;;;;;;;50.97;23.50;;;6.70;99.90;;;;;;477019;249;27787;-73
2024/03/05 06:15:19;;;;;;;47.90;23.43;;;6.70;99.90;;;;;;468136;251;27973;-72
2024/03/05 06:17:21;;;;;;;45.47;21.50;;;6.70;99.90;;;;;;476952;249;27556;-73
2024/03/05 06:19:22;;;;;;;42.73;21.47;;;6.70;99.90;;;;;;468134;253;27673;-71
2024/03/05 06:21:23;;;;;;;45.90;21.83;;;6.70;99.90;;;;;;477055;249;27894;-73
2024/03/05 06:23:25;;;;;;;42.93;22.07;;;6.80;99.90;;;;;;468150;251;28172;-74
2024/03/05 06:25:27;;;;;;;51.23;24.30;;;6.80;99.90;;;;;;476994;249;28358;-73
2024/03/05 06:27:27;;;;;;;37.00;21.20;;;6.80;99.90;;;;;;468059;254;27849;-73
2024/03/05 06:29:28;;;;;;;42.47;22.10;;;6.80;99.90;;;;;;477040;249;27677;-74
2024/03/05 06:31:30;;;;;;;45.70;21.83;;;6.80;99.90;;;;;;468163;251;28021;-73
2024/03/05 06:33:31;;;;;;;41.17;21.50;;;6.80;99.90;;;;;;477015;249;27943;-74
2024/03/05 06:35:32;;;;;;;37.63;22.07;;;6.80;99.90;;;;;;468148;251;27899;-74
2024/03/05 06:37:34;;;;;;;42.00;21.33;;;6.80;99.90;;;;;;477011;249;27873;-74
2024/03/05 06:39:41;;;;;;;41.10;23.10;;;6.80;99.90;;;;;;468181;251;27821;-74
2024/03/05 06:41:37;;;;;;;41.37;22.63;;;6.80;99.90;;;;;;476663;249;28440;-73
2024/03/05 06:43:37;;;;;;;41.87;22.57;;;6.80;99.90;;;;;;468080;254;28291;-73
2024/03/05 06:45:40;;;;;;;52.03;25.70;;;6.80;99.90;;;;;;477057;249;28204;-73
2024/03/05 06:47:43;;;;;;;42.47;23.00;;;6.80;99.90;;;;;;467981;254;27800;-73
2024/03/05 06:49:42;;;;;;;49.20;23.63;;;6.80;99.90;;;;;;476807;249;28026;-73
2024/03/05 06:51:52;;;;;;;45.53;24.10;;;6.80;99.90;;;;;;468123;254;27970;-73
2024/03/05 06:58:25;;;;;;;41.10;22.48;;;6.70;99.90;;;;;;476979;249;27525;-73
2024/03/05 07:00:27;;;;;;;43.92;23.58;;;6.70;99.90;;;;;;468131;251;28604;-72
2024/03/05 07:02:30;;;;;;;51.75;26.40;;;6.70;99.90;;;;;;477040;249;27394;-73
2024/03/05 07:04:29;;;;;;;56.33;27.05;;;6.70;99.90;;;;;;467994;254;27549;-73
2024/03/05 07:06:32;;;;;;;46.63;26.57;;;6.70;99.90;;;;;;477029;249;27430;-73
2024/03/05 07:08:32;;;;;;;44.07;25.60;;;6.60;99.90;;;;;;468027;254;28831;-73
2024/03/05 07:10:33;;;;;;;43.27;23.17;;;6.60;99.90;;;;;;477043;249;28791;-75
2024/03/05 07:12:34;;;;;;;42.60;22.70;;;6.70;99.90;;;;;;468161;251;28029;-73
2024/03/05 07:14:35;;;;;;;39.30;22.60;;;6.70;99.90;;;;;;477025;249;28512;-73
2024/03/05 07:16:37;;;;;;;42.90;25.40;;;6.70;99.90;;;;;;468130;251;28476;-73
2024/03/05 07:18:38;;;;;;;47.50;24.90;;;6.70;99.90;;;;;;476983;249;28141;-74
2024/03/05 07:20:39;;;;;;;46.55;25.08;;;6.80;99.90;;;;;;468168;251;28190;-74
2024/03/05 07:22:40;;;;;;;52.90;27.93;;;6.70;99.90;;;;;;477021;249;27419;-73
2024/03/05 07:24:42;;;;;;;45.42;25.37;;;6.70;99.90;;;;;;468113;251;28017;-73
2024/03/05 07:26:44;;;;;;;47.27;26.00;;;6.70;99.90;;;;;;477012;249;28643;-73
2024/03/05 07:28:44;;;;;;;46.00;25.80;;;6.70;99.90;;;;;;468137;251;28062;-73
2024/03/05 07:30:46;;;;;;;41.50;23.40;;;6.60;99.90;;;;;;477002;249;28090;-74
2024/03/05 07:32:47;;;;;;;41.33;24.77;;;6.60;99.90;;;;;;468113;251;27904;-73
2024/03/05 07:34:48;;;;;;;38.65;22.37;;;6.70;99.90;;;;;;476976;249;27434;-73
2024/03/05 07:36:49;;;;;;;52.77;26.73;;;6.70;99.90;;;;;;468115;253;27538;-74
2024/03/05 07:38:52;;;;;;;39.87;23.80;;;6.70;99.90;;;;;;476982;249;29282;-72
2024/03/05 07:40:52;;;;;;;37.77;22.30;;;6.70;99.90;;;;;;468048;254;28375;-74
2024/03/05 07:42:56;;;;;;;38.90;22.10;;;6.70;99.90;;;;;;476988;249;27832;-73
2024/03/05 07:44:57;;;;;;;35.97;21.13;;;6.60;99.90;;;;;;468090;251;27937;-73
2024/03/05 07:46:58;;;;;;;52.07;27.40;;;6.70;99.90;;;;;;476991;249;28344;-73
2024/03/05 07:48:59;;;;;;;46.45;26.08;;;6.70;99.90;;;;;;468132;251;27849;-73
2024/03/05 07:51:01;;;;;;;41.13;23.17;;;6.70;99.90;;;;;;476994;249;27935;-73
2024/03/05 07:53:02;;;;;;;48.00;26.40;;;6.70;99.90;;;;;;468101;253;28159;-73
2024/03/05 07:55:04;;;;;;;42.77;23.37;;;6.70;99.90;;;;;;477010;249;28833;-73
2024/03/05 07:57:05;;;;;;;40.67;24.27;;;6.70;99.90;;;;;;468146;251;28613;-73
2024/03/05 07:59:06;;;;;;;38.47;23.90;;;6.80;99.90;;;;;;476982;249;28215;-73
2024/03/05 08:01:07;;;;;;;38.57;22.27;;;6.80;99.90;;;;;;468105;251;28794;-73
2024/03/05 08:03:10;;;;;;;42.73;26.43;;;6.80;99.90;;;;;;476991;249;28023;-73
2024/03/05 08:05:09;;;;;;;44.27;25.77;;;6.70;99.90;;;;;;468035;254;28372;-74
2024/03/05 08:07:11;;;;;;;35.83;22.43;;;6.80;99.90;;;;;;476994;249;28582;-76
2024/03/05 08:09:12;;;;;;;39.43;22.83;;;6.80;99.90;;;;;;468121;254;27588;-74
2024/03/05 08:11:13;;;;;;;35.13;21.70;;;6.80;99.90;;;;;;476997;249;27771;-73
2024/03/05 08:13:14;;;;;;;41.27;23.93;;;6.80;99.90;;;;;;468090;251;27546;-73
2024/03/05 08:15:16;;;;;;;36.70;20.97;;;6.90;99.90;;;;;;477019;249;27901;-74
2024/03/05 08:17:17;;;;;;;39.20;22.07;;;6.90;99.90;;;;;;468094;251;28139;-72
2024/03/05 08:19:19;;;;;;;33.80;22.10;;;6.90;99.90;;;;;;477024;249;28017;-73
2024/03/05 08:21:20;;;;;;;38.87;24.37;;;6.90;99.90;;;;;;468086;251;27998;-73
2024/03/05 08:23:22;;;;;;;39.50;21.80;;;7.00;99.90;;;;;;477042;249;28461;-74
2024/03/05 08:25:22;;;;;;;35.17;20.23;;;6.90;99.90;;;;;;468115;251;28571;-73
2024/03/05 08:27:23;;;;;;;34.57;22.10;;;7.00;99.90;;;;;;476963;249;27651;-73
2024/03/05 08:29:25;;;;;;;38.63;23.20;;;7.00;99.90;;;;;;468126;251;27877;-73
2024/03/05 08:31:26;;;;;;;37.43;22.90;;;7.00;99.90;;;;;;477021;249;28090;-73
2024/03/05 08:33:28;;;;;;;55.60;25.57;;;7.00;99.90;;;;;;468137;251;27642;-73
2024/03/05 08:35:30;;;;;;;36.03;24.07;;;6.90;99.90;;;;;;476999;249;27945;-74
2024/03/05 08:37:30;;;;;;;34.57;20.67;;;6.90;99.90;;;;;;468049;251;28161;-73
2024/03/05 08:39:31;;;;;;;40.70;24.47;;;6.90;99.90;;;;;;476968;249;27928;-73
2024/03/05 08:41:32;;;;;;;39.17;23.60;;;6.90;99.90;;;;;;468140;251;28425;-74
2024/03/05 08:43:33;;;;;;;36.13;22.10;;;6.90;99.90;;;;;;476990;249;27767;-73
2024/03/05 08:45:36;;;;;;;38.23;23.03;;;6.90;99.90;;;;;;468109;251;27913;-74
2024/03/05 08:47:36;;;;;;;40.60;24.60;;;6.90;99.90;;;;;;476869;249;28598;-73
2024/03/05 08:49:37;;;;;;;40.00;22.43;;;6.90;99.90;;;;;;468133;251;27542;-74
2024/03/05 08:51:39;;;;;;;36.73;20.83;;;6.90;99.90;;;;;;477013;249;27800;-74
2024/03/05 08:53:40;;;;;;;37.20;21.57;;;6.90;99.90;;;;;;468112;251;27941;-73
2024/03/05 08:55:41;;;;;;;38.60;22.20;;;7.00;99.90;;;;;;476982;249;28125;-74
2024/03/05 08:57:42;;;;;;;38.33;23.00;;;7.00;99.90;;;;;;468112;251;29165;-73
2024/03/05 08:59:43;;;;;;;30.80;19.43;;;7.00;99.90;;;;;;477012;249;28335;-73
2024/03/05 09:01:45;;;;;;;33.77;22.10;;;7.00;99.90;;;;;;468128;251;28009;-74
2024/03/05 09:03:46;;;;;;;35.83;20.80;;;7.00;99.90;;;;;;477009;249;27954;-73
2024/03/05 09:05:47;;;;;;;31.13;20.43;;;7.00;99.90;;;;;;468120;251;27606;-73
2024/03/05 09:07:49;;;;;;;35.00;19.90;;;7.00;99.90;;;;;;476981;249;28465;-76
2024/03/05 09:09:50;;;;;;;26.67;19.47;;;7.00;99.90;;;;;;468060;251;27632;-73
2024/03/05 09:11:51;;;;;;;29.13;18.33;;;7.00;99.90;;;;;;476986;249;28012;-73
2024/03/05 09:13:52;;;;;;;25.03;16.67;;;7.00;99.90;;;;;;468079;251;28470;-73
2024/03/05 09:15:53;;;;;;;26.62;16.30;;;7.00;99.90;;;;;;477026;249;27634;-73
2024/03/05 09:17:55;;;;;;;23.37;15.67;;;6.90;99.90;;;;;;468123;251;27847;-73
2024/03/05 09:19:56;;;;;;;26.03;16.20;;;6.90;99.90;;;;;;476994;249;27730;-73
2024/03/05 09:21:57;;;;;;;23.07;15.07;;;6.90;99.90;;;;;;468104;251;27981;-73
2024/03/05 09:23:58;;;;;;;21.53;13.40;;;6.90;99.90;;;;;;476998;249;27924;-73
2024/03/05 09:26:00;;;;;;;22.80;13.80;;;6.90;99.90;;;;;;468137;251;28285;-73
2024/03/05 09:28:01;;;;;;;22.50;13.53;;;7.00;99.90;;;;;;476974;249;28237;-73
2024/03/05 09:30:05;;;;;;;25.43;13.60;;;6.90;99.90;;;;;;468127;251;28547;-73
2024/03/05 09:32:03;;;;;;;17.40;12.60;;;6.90;99.90;;;;;;476756;249;27803;-73
2024/03/05 09:34:05;;;;;;;19.33;11.17;;;6.90;99.90;;;;;;468133;251;27809;-75
2024/03/05 09:36:08;;;;;;;18.10;12.20;;;7.00;99.90;;;;;;477008;249;27997;-74
2024/03/05 09:38:07;;;;;;;17.30;11.40;;;7.00;99.90;;;;;;467986;254;27993;-74
2024/03/05 09:40:16;;;;;;;17.40;11.30;;;7.00;99.90;;;;;;476992;249;27753;-73
2024/03/05 09:42:10;;;;;;;18.10;11.70;;;7.10;99.90;;;;;;467511;254;27817;-73
2024/03/05 09:44:11;;;;;;;21.83;11.77;;;7.10;99.90;;;;;;476995;249;28498;-74
2024/03/05 09:46:12;;;;;;;14.50;11.00;;;6.90;99.90;;;;;;468139;251;28261;-73
2024/03/05 09:48:14;;;;;;;17.17;10.50;;;6.90;99.90;;;;;;476968;249;28096;-74
2024/03/05 09:50:15;;;;;;;16.53;11.53;;;7.00;99.90;;;;;;468115;251;27940;-73
2024/03/05 09:52:16;;;;;;;17.50;11.63;;;7.00;99.90;;;;;;477041;249;27846;-73
2024/03/05 09:54:17;;;;;;;16.67;11.10;;;7.00;99.90;;;;;;468150;251;28040;-74
2024/03/05 09:56:19;;;;;;;14.70;11.10;;;6.90;99.90;;;;;;477026;249;27528;-73
2024/03/05 09:58:20;;;;;;;16.17;9.40;;;7.00;99.90;;;;;;467929;254;27980;-74
2024/03/05 10:00:21;;;;;;;13.23;9.60;;;7.00;99.90;;;;;;477061;249;27959;-74
2024/03/05 10:02:22;;;;;;;15.77;9.90;;;7.00;99.90;;;;;;468178;251;27910;-73
2024/03/05 10:04:28;;;;;;;12.80;9.93;;;7.10;99.90;;;;;;477015;249;28362;-74
2024/03/05 10:06:28;;;;;;;10.60;8.20;;;7.20;99.90;;;;;;468121;251;27932;-73
2024/03/05 10:08:29;;;;;;;13.50;7.97;;;7.40;99.90;;;;;;477006;249;27828;-75
2024/03/05 10:10:30;;;;;;;11.23;7.97;;;7.60;99.90;;;;;;468203;251;28513;-73
2024/03/05 10:12:32;;;;;;;8.80;7.20;;;7.80;99.90;;;;;;477041;249;28393;-74
2024/03/05 10:14:34;;;;;;;8.47;7.40;;;7.90;99.90;;;;;;468163;251;28410;-73
2024/03/05 10:16:34;;;;;;;8.30;6.57;;;8.10;99.90;;;;;;477006;249;28197;-72
2024/03/05 10:18:35;;;;;;;11.43;6.90;;;8.30;99.90;;;;;;468143;251;28523;-74
2024/03/05 10:20:37;;;;;;;7.80;5.80;;;8.40;99.90;;;;;;477020;249;27738;-73
2024/03/05 10:22:38;;;;;;;7.87;5.57;;;8.50;99.90;;;;;;468050;251;27461;-73
2024/03/05 10:24:39;;;;;;;6.83;5.20;;;8.50;99.90;;;;;;477016;249;27686;-73
2024/03/05 10:26:41;;;;;;;7.50;4.90;;;8.40;99.90;;;;;;468149;251;27729;-73
2024/03/05 10:28:42;;;;;;;6.63;5.00;;;8.30;99.90;;;;;;477007;249;27812;-74